sensor_id;sensor_type;location;lat;lon;timestamp;pressure;altitude;pressure_sealevel;temperature;humidity
39435;BME280;30098;51.880;-0.518;2022-08-19T00:00:24;100323.00;;;24.31;45.62
39435;BME280;30098;51.880;-0.518;2022-08-19T00:02:50;100330.44;;;24.31;45.85
39435;BME280;30098;51.880;-0.518;2022-08-19T00:05:17;100325.28;;;24.29;45.59
39435;BME280;30098;51.880;-0.518;2022-08-19T00:07:44;100333.53;;;24.29;45.86
39435;BME280;30098;51.880;-0.518;2022-08-19T00:10:11;100328.03;;;24.29;45.69
39435;BME280;30098;51.880;-0.518;2022-08-19T00:12:38;100319.94;;;24.20;45.89
39435;BME280;30098;51.880;-0.518;2022-08-19T00:15:12;100326.00;;;24.26;45.88
39435;BME280;30098;51.880;-0.518;2022-08-19T00:17:43;100326.44;;;24.28;46.07
39435;BME280;30098;51.880;-0.518;2022-08-19T00:20:15;100325.66;;;24.27;45.92
39435;BME280;30098;51.880;-0.518;2022-08-19T00:22:44;100327.56;;;24.27;45.88
39435;BME280;30098;51.880;-0.518;2022-08-19T00:25:10;100329.53;;;24.26;46.06
39435;BME280;30098;51.880;-0.518;2022-08-19T00:27:36;100304.47;;;24.16;45.82
39435;BME280;30098;51.880;-0.518;2022-08-19T00:30:04;100317.75;;;24.26;45.79
39435;BME280;30098;51.880;-0.518;2022-08-19T00:32:30;100324.41;;;24.25;45.70
39435;BME280;30098;51.880;-0.518;2022-08-19T00:34:55;100327.16;;;24.25;45.67
39435;BME280;30098;51.880;-0.518;2022-08-19T00:37:22;100324.72;;;24.23;45.86
39435;BME280;30098;51.880;-0.518;2022-08-19T00:39:49;100315.22;;;24.21;45.84
39435;BME280;30098;51.880;-0.518;2022-08-19T00:42:17;100308.56;;;24.22;45.67
39435;BME280;30098;51.880;-0.518;2022-08-19T00:44:43;100312.81;;;24.19;45.88
39435;BME280;30098;51.880;-0.518;2022-08-19T00:47:09;100318.44;;;24.23;45.92
39435;BME280;30098;51.880;-0.518;2022-08-19T00:49:47;100305.81;;;24.22;45.82
39435;BME280;30098;51.880;-0.518;2022-08-19T00:52:37;100310.06;;;24.19;45.80
39435;BME280;30098;51.880;-0.518;2022-08-19T00:55:07;100292.34;;;24.04;45.95
39435;BME280;30098;51.880;-0.518;2022-08-19T00:57:38;100321.88;;;24.20;46.04
39435;BME280;30098;51.880;-0.518;2022-08-19T01:00:08;100310.06;;;24.19;46.11
39435;BME280;30098;51.880;-0.518;2022-08-19T01:02:37;100299.22;;;24.10;46.02
39435;BME280;30098;51.880;-0.518;2022-08-19T01:05:06;100310.06;;;24.19;46.06
39435;BME280;30098;51.880;-0.518;2022-08-19T01:07:34;100305.34;;;24.20;45.75
39435;BME280;30098;51.880;-0.518;2022-08-19T01:10:01;100311.22;;;24.18;46.18
39435;BME280;30098;51.880;-0.518;2022-08-19T01:12:27;100301.97;;;24.10;46.27
39435;BME280;30098;51.880;-0.518;2022-08-19T01:14:53;100302.97;;;24.18;46.24
39435;BME280;30098;51.880;-0.518;2022-08-19T01:17:20;100251.31;;;23.87;46.06
39435;BME280;30098;51.880;-0.518;2022-08-19T01:19:46;100278.50;;;24.01;46.19
39435;BME280;30098;51.880;-0.518;2022-08-19T01:24:38;100306.06;;;24.17;46.30
39435;BME280;30098;51.880;-0.518;2022-08-19T01:27:05;100296.22;;;24.16;46.06
39435;BME280;30098;51.880;-0.518;2022-08-19T01:29:30;100294.97;;;24.13;46.02
39435;BME280;30098;51.880;-0.518;2022-08-19T01:31:57;100300.56;;;24.17;46.30
39435;BME280;30098;51.880;-0.518;2022-08-19T01:34:22;100298.16;;;24.15;46.26
39435;BME280;30098;51.880;-0.518;2022-08-19T01:36:48;100299.66;;;24.13;46.04
39435;BME280;30098;51.880;-0.518;2022-08-19T01:39:19;100302.84;;;24.15;45.83
39435;BME280;30098;51.880;-0.518;2022-08-19T01:41:47;100302.84;;;24.15;45.99
39435;BME280;30098;51.880;-0.518;2022-08-19T01:44:13;100290.03;;;24.06;46.04
39435;BME280;30098;51.880;-0.518;2022-08-19T01:46:39;100304.00;;;24.14;45.94
39435;BME280;30098;51.880;-0.518;2022-08-19T01:49:06;100311.13;;;24.15;46.34
39435;BME280;30098;51.880;-0.518;2022-08-19T01:51:33;100239.06;;;23.72;46.46
39435;BME280;30098;51.880;-0.518;2022-08-19T01:53:59;100303.22;;;24.13;45.97
39435;BME280;30098;51.880;-0.518;2022-08-19T01:56:25;100284.56;;;23.94;46.22
39435;BME280;30098;51.880;-0.518;2022-08-19T01:58:55;100307.09;;;24.12;46.17
39435;BME280;30098;51.880;-0.518;2022-08-19T02:01:22;100303.22;;;24.13;46.16
39435;BME280;30098;51.880;-0.518;2022-08-19T02:03:47;100213.34;;;23.52;46.33
39435;BME280;30098;51.880;-0.518;2022-08-19T02:06:13;100300.81;;;24.12;46.13
39435;BME280;30098;51.880;-0.518;2022-08-19T02:08:39;100298.06;;;24.12;46.21
39435;BME280;30098;51.880;-0.518;2022-08-19T02:11:06;100302.75;;;24.11;46.09
39435;BME280;30098;51.880;-0.518;2022-08-19T02:13:33;100300.00;;;24.11;46.13
39435;BME280;30098;51.880;-0.518;2022-08-19T02:15:59;100305.50;;;24.11;46.29
39435;BME280;30098;51.880;-0.518;2022-08-19T02:18:25;100304.72;;;24.10;46.26
39435;BME280;30098;51.880;-0.518;2022-08-19T02:20:52;100270.22;;;23.88;46.38
39435;BME280;30098;51.880;-0.518;2022-08-19T02:23:17;100305.03;;;24.09;46.43
39435;BME280;30098;51.880;-0.518;2022-08-19T02:25:47;100286.97;;;23.95;46.23
39435;BME280;30098;51.880;-0.518;2022-08-19T02:28:13;100316.03;;;24.09;46.23
39435;BME280;30098;51.880;-0.518;2022-08-19T02:30:41;100295.91;;;24.05;46.42
39435;BME280;30098;51.880;-0.518;2022-08-19T02:33:06;100307.00;;;24.08;46.65
39435;BME280;30098;51.880;-0.518;2022-08-19T02:35:32;100305.03;;;24.09;46.58
39435;BME280;30098;51.880;-0.518;2022-08-19T02:37:57;100305.84;;;24.09;46.57
39435;BME280;30098;51.880;-0.518;2022-08-19T02:40:51;100286.84;;;23.92;46.35
39435;BME280;30098;51.880;-0.518;2022-08-19T02:43:18;100313.66;;;24.07;46.48
39435;BME280;30098;51.880;-0.518;2022-08-19T02:45:45;100301.84;;;24.07;46.56
39435;BME280;30098;51.880;-0.518;2022-08-19T02:48:15;100303.78;;;24.06;46.29
39435;BME280;30098;51.880;-0.518;2022-08-19T02:50:43;100299.00;;;24.03;46.36
39435;BME280;30098;51.880;-0.518;2022-08-19T02:53:09;100303.00;;;24.06;46.30
39435;BME280;30098;51.880;-0.518;2022-08-19T02:55:34;100306.09;;;24.04;46.35
39435;BME280;30098;51.880;-0.518;2022-08-19T02:58:01;100304.94;;;24.05;46.43
39435;BME280;30098;51.880;-0.518;2022-08-19T03:00:27;100309.66;;;24.05;46.29
39435;BME280;30098;51.880;-0.518;2022-08-19T03:02:53;100304.16;;;24.05;46.48
39435;BME280;30098;51.880;-0.518;2022-08-19T03:05:19;100286.53;;;23.93;46.46
39435;BME280;30098;51.880;-0.518;2022-08-19T03:07:44;100311.63;;;24.04;46.55
39435;BME280;30098;51.880;-0.518;2022-08-19T03:10:11;100306.09;;;24.04;46.25
39435;BME280;30098;51.880;-0.518;2022-08-19T03:12:38;100311.63;;;24.04;46.32
39435;BME280;30098;51.880;-0.518;2022-08-19T03:15:07;100305.28;;;24.04;46.24
39435;BME280;30098;51.880;-0.518;2022-08-19T03:17:34;100291.69;;;23.95;46.43
39435;BME280;30098;51.880;-0.518;2022-08-19T03:19:59;100300.94;;;24.03;46.28
39435;BME280;30098;51.880;-0.518;2022-08-19T03:22:25;100303.69;;;24.03;46.39
39435;BME280;30098;51.880;-0.518;2022-08-19T03:24:50;100296.56;;;24.02;46.53
39435;BME280;30098;51.880;-0.518;2022-08-19T03:27:16;100302.91;;;24.02;46.37
39435;BME280;30098;51.880;-0.518;2022-08-19T03:29:43;100309.19;;;24.03;46.41
39435;BME280;30098;51.880;-0.518;2022-08-19T03:32:08;100307.59;;;24.02;46.60
39435;BME280;30098;51.880;-0.518;2022-08-19T03:34:36;100313.09;;;24.02;46.62
39435;BME280;30098;51.880;-0.518;2022-08-19T03:37:07;100216.09;;;23.39;46.48
39435;BME280;30098;51.880;-0.518;2022-08-19T03:39:35;100309.53;;;24.01;46.41
39435;BME280;30098;51.880;-0.518;2022-08-19T03:42:00;100313.44;;;24.00;46.58
39435;BME280;30098;51.880;-0.518;2022-08-19T03:44:29;100315.06;;;24.01;46.44
39435;BME280;30098;51.880;-0.518;2022-08-19T03:46:58;100322.50;;;24.01;46.35
39435;BME280;30098;51.880;-0.518;2022-08-19T03:49:26;100321.69;;;24.00;46.55
39435;BME280;30098;51.880;-0.518;2022-08-19T03:51:53;100227.81;;;23.36;46.66
39435;BME280;30098;51.880;-0.518;2022-08-19T03:54:21;100318.94;;;24.00;46.62
39435;BME280;30098;51.880;-0.518;2022-08-19T03:56:49;100321.69;;;24.00;46.45
39435;BME280;30098;51.880;-0.518;2022-08-19T03:59:21;100127.50;;;22.80;46.51
39435;BME280;30098;51.880;-0.518;2022-08-19T04:01:47;100317.34;;;23.99;46.70
39435;BME280;30098;51.880;-0.518;2022-08-19T04:04:13;100317.34;;;23.99;46.79
39435;BME280;30098;51.880;-0.518;2022-08-19T04:06:38;100317.69;;;23.98;46.81
39435;BME280;30098;51.880;-0.518;2022-08-19T04:09:07;100312.97;;;23.98;46.71
39435;BME280;30098;51.880;-0.518;2022-08-19T04:11:36;100317.69;;;23.98;46.57
39435;BME280;30098;51.880;-0.518;2022-08-19T04:14:04;100318.47;;;23.98;46.72
39435;BME280;30098;51.880;-0.518;2022-08-19T04:16:30;100324.81;;;23.99;46.86
39435;BME280;30098;51.880;-0.518;2022-08-19T04:18:56;100319.66;;;23.97;46.76
39435;BME280;30098;51.880;-0.518;2022-08-19T04:21:24;100316.09;;;23.97;46.88
39435;BME280;30098;51.880;-0.518;2022-08-19T04:23:51;100316.09;;;23.97;46.71
39435;BME280;30098;51.880;-0.518;2022-08-19T04:26:19;100326.31;;;23.96;46.46
39435;BME280;30098;51.880;-0.518;2022-08-19T04:28:45;100329.84;;;23.97;46.61
39435;BME280;30098;51.880;-0.518;2022-08-19T04:31:16;100312.41;;;23.80;46.83
39435;BME280;30098;51.880;-0.518;2022-08-19T04:33:42;100335.34;;;23.97;46.91
39435;BME280;30098;51.880;-0.518;2022-08-19T04:36:14;100334.56;;;23.96;46.90
39435;BME280;30098;51.880;-0.518;2022-08-19T04:38:41;100341.22;;;23.95;46.99
39435;BME280;30098;51.880;-0.518;2022-08-19T04:41:06;100326.84;;;23.89;46.60
39435;BME280;30098;51.880;-0.518;2022-08-19T04:43:50;100332.94;;;23.95;46.92
39435;BME280;30098;51.880;-0.518;2022-08-19T04:46:16;100313.69;;;23.83;47.03
39435;BME280;30098;51.880;-0.518;2022-08-19T04:48:42;100317.22;;;23.83;46.93
39435;BME280;30098;51.880;-0.518;2022-08-19T04:51:10;100341.06;;;23.91;46.89
39435;BME280;30098;51.880;-0.518;2022-08-19T04:53:39;100353.00;;;23.95;46.90
39435;BME280;30098;51.880;-0.518;2022-08-19T04:56:09;100364.34;;;23.94;47.09
39435;BME280;30098;51.880;-0.518;2022-08-19T04:58:36;100361.59;;;23.94;46.95
39435;BME280;30098;51.880;-0.518;2022-08-19T05:01:01;100366.31;;;23.93;46.75
39435;BME280;30098;51.880;-0.518;2022-08-19T05:03:27;100372.59;;;23.94;47.04
39435;BME280;30098;51.880;-0.518;2022-08-19T05:05:55;100374.88;;;23.92;46.87
39435;BME280;30098;51.880;-0.518;2022-08-19T05:08:21;100369.38;;;23.92;47.03
39435;BME280;30098;51.880;-0.518;2022-08-19T05:10:49;100325.28;;;23.63;47.03
39435;BME280;30098;51.880;-0.518;2022-08-19T05:13:16;100373.75;;;23.93;46.92
39435;BME280;30098;51.880;-0.518;2022-08-19T05:15:43;100366.63;;;23.92;46.82
39435;BME280;30098;51.880;-0.518;2022-08-19T05:18:09;100365.72;;;23.88;47.11
39435;BME280;30098;51.880;-0.518;2022-08-19T05:20:53;100376.00;;;23.91;46.86
39435;BME280;30098;51.880;-0.518;2022-08-19T05:23:37;100385.09;;;23.91;47.09
39435;BME280;30098;51.880;-0.518;2022-08-19T05:26:03;100375.91;;;23.87;47.23
39435;BME280;30098;51.880;-0.518;2022-08-19T05:28:29;100388.97;;;23.90;46.95
39435;BME280;30098;51.880;-0.518;2022-08-19T05:30:55;100384.25;;;23.91;47.03
39435;BME280;30098;51.880;-0.518;2022-08-19T05:33:21;100383.47;;;23.90;47.18
39435;BME280;30098;51.880;-0.518;2022-08-19T05:35:48;100388.50;;;23.88;47.06
39435;BME280;30098;51.880;-0.518;2022-08-19T05:38:16;100388.97;;;23.90;46.94
39435;BME280;30098;51.880;-0.518;2022-08-19T05:40:42;100388.19;;;23.90;47.20
39435;BME280;30098;51.880;-0.518;2022-08-19T05:43:13;100296.41;;;23.33;47.06
39435;BME280;30098;51.880;-0.518;2022-08-19T05:45:43;100392.09;;;23.89;46.92
39435;BME280;30098;51.880;-0.518;2022-08-19T05:48:12;100379.47;;;23.88;47.14
39435;BME280;30098;51.880;-0.518;2022-08-19T05:50:39;100398.38;;;23.89;47.31
39435;BME280;30098;51.880;-0.518;2022-08-19T05:53:05;100384.28;;;23.78;47.17
39435;BME280;30098;51.880;-0.518;2022-08-19T05:55:32;100379.13;;;23.77;47.17
39435;BME280;30098;51.880;-0.518;2022-08-19T05:57:57;100391.25;;;23.88;47.15
39435;BME280;30098;51.880;-0.518;2022-08-19T06:00:23;100398.72;;;23.88;47.20
39435;BME280;30098;51.880;-0.518;2022-08-19T06:02:49;100408.59;;;23.89;47.06
39435;BME280;30098;51.880;-0.518;2022-08-19T06:05:16;100388.63;;;23.79;47.16
39435;BME280;30098;51.880;-0.518;2022-08-19T06:07:41;100408.91;;;23.87;47.18
39435;BME280;30098;51.880;-0.518;2022-08-19T06:10:09;100408.59;;;23.89;47.25
39435;BME280;30098;51.880;-0.518;2022-08-19T06:12:35;100398.97;;;23.83;47.14
39435;BME280;30098;51.880;-0.518;2022-08-19T06:15:04;100408.13;;;23.87;47.14
39435;BME280;30098;51.880;-0.518;2022-08-19T06:17:30;100408.91;;;23.87;47.09
39435;BME280;30098;51.880;-0.518;2022-08-19T06:19:56;100407.34;;;23.86;47.07
39435;BME280;30098;51.880;-0.518;2022-08-19T06:22:21;100412.84;;;23.86;47.19
39435;BME280;30098;51.880;-0.518;2022-08-19T06:24:47;100410.09;;;23.86;47.25
39435;BME280;30098;51.880;-0.518;2022-08-19T06:27:13;100413.50;;;23.83;47.04
39435;BME280;30098;51.880;-0.518;2022-08-19T06:29:38;100419.47;;;23.85;47.14
39435;BME280;30098;51.880;-0.518;2022-08-19T06:32:04;100412.00;;;23.86;47.02
39435;BME280;30098;51.880;-0.518;2022-08-19T06:34:32;100419.47;;;23.85;47.35
39435;BME280;30098;51.880;-0.518;2022-08-19T06:37:00;100397.69;;;23.68;47.13
39435;BME280;30098;51.880;-0.518;2022-08-19T06:39:30;100412.94;;;23.77;47.15
39435;BME280;30098;51.880;-0.518;2022-08-19T06:42:00;100420.63;;;23.84;47.30
39435;BME280;30098;51.880;-0.518;2022-08-19T06:44:29;100403.97;;;23.68;47.27
39435;BME280;30098;51.880;-0.518;2022-08-19T06:47:02;100388.75;;;23.58;47.24
39435;BME280;30098;51.880;-0.518;2022-08-19T06:49:28;100439.88;;;23.84;47.42
39435;BME280;30098;51.880;-0.518;2022-08-19T06:51:56;100439.06;;;23.84;47.37
39435;BME280;30098;51.880;-0.518;2022-08-19T06:54:22;100411.78;;;23.66;47.43
39435;BME280;30098;51.880;-0.518;2022-08-19T06:56:48;100436.31;;;23.84;47.36
39435;BME280;30098;51.880;-0.518;2022-08-19T06:59:19;100364.09;;;23.37;47.20
39435;BME280;30098;51.880;-0.518;2022-08-19T07:01:48;100437.13;;;23.84;47.47
39435;BME280;30098;51.880;-0.518;2022-08-19T07:04:16;100440.34;;;23.86;47.11
39435;BME280;30098;51.880;-0.518;2022-08-19T07:06:43;100436.09;;;23.89;47.30
39435;BME280;30098;51.880;-0.518;2022-08-19T07:09:11;100436.88;;;23.89;47.19
39435;BME280;30098;51.880;-0.518;2022-08-19T07:11:36;100444.16;;;23.94;47.24
39435;BME280;30098;51.880;-0.518;2022-08-19T07:14:02;100454.00;;;23.95;47.17
39435;BME280;30098;51.880;-0.518;2022-08-19T07:16:28;100447.00;;;23.98;47.12
39435;BME280;30098;51.880;-0.518;2022-08-19T07:18:55;100446.66;;;23.99;46.71
39435;BME280;30098;51.880;-0.518;2022-08-19T07:21:27;100443.78;;;23.95;47.07
39435;BME280;30098;51.880;-0.518;2022-08-19T07:23:58;100458.59;;;24.03;46.94
39435;BME280;30098;51.880;-0.518;2022-08-19T07:26:27;100450.00;;;24.05;46.84
39435;BME280;30098;51.880;-0.518;2022-08-19T07:28:54;100450.47;;;24.07;46.97
39435;BME280;30098;51.880;-0.518;2022-08-19T07:31:22;100455.59;;;24.08;46.80
39435;BME280;30098;51.880;-0.518;2022-08-19T07:33:51;100460.75;;;24.10;46.86
39435;BME280;30098;51.880;-0.518;2022-08-19T07:36:19;100454.94;;;24.12;47.00
39435;BME280;30098;51.880;-0.518;2022-08-19T07:38:48;100456.19;;;24.14;46.99
39435;BME280;30098;51.880;-0.518;2022-08-19T07:41:18;100456.63;;;24.16;46.82
39435;BME280;30098;51.880;-0.518;2022-08-19T07:43:44;100459.06;;;24.18;46.82
39435;BME280;30098;51.880;-0.518;2022-08-19T07:46:11;100427.88;;;24.01;46.89
39435;BME280;30098;51.880;-0.518;2022-08-19T07:48:40;100453.97;;;24.20;46.95
39435;BME280;30098;51.880;-0.518;2022-08-19T07:51:08;100461.91;;;24.21;47.06
39435;BME280;30098;51.880;-0.518;2022-08-19T07:53:34;100467.84;;;24.23;46.58
39435;BME280;30098;51.880;-0.518;2022-08-19T07:56:01;100469.47;;;24.24;46.83
39435;BME280;30098;51.880;-0.518;2022-08-19T07:58:28;100469.03;;;24.22;46.35
39435;BME280;30098;51.880;-0.518;2022-08-19T08:00:55;100474.28;;;24.27;46.38
39435;BME280;30098;51.880;-0.518;2022-08-19T08:03:22;100470.41;;;24.29;46.77
39435;BME280;30098;51.880;-0.518;2022-08-19T08:06:11;100475.19;;;24.32;46.91
39435;BME280;30098;51.880;-0.518;2022-08-19T08:08:55;100448.84;;;24.18;46.91
39435;BME280;30098;51.880;-0.518;2022-08-19T08:11:39;100472.56;;;24.35;47.14
39435;BME280;30098;51.880;-0.518;2022-08-19T08:14:06;100477.03;;;24.40;46.81
39435;BME280;30098;51.880;-0.518;2022-08-19T08:16:36;100484.13;;;24.41;46.52
39435;BME280;30098;51.880;-0.518;2022-08-19T08:19:06;100485.75;;;24.42;46.50
39435;BME280;30098;51.880;-0.518;2022-08-19T08:21:32;100472.56;;;24.35;46.40
39435;BME280;30098;51.880;-0.518;2022-08-19T08:23:58;100470.84;;;24.43;46.70
39435;BME280;30098;51.880;-0.518;2022-08-19T08:26:24;100476.81;;;24.45;46.58
39435;BME280;30098;51.880;-0.518;2022-08-19T08:28:51;100480.47;;;24.49;46.44
39435;BME280;30098;51.880;-0.518;2022-08-19T08:31:17;100484.47;;;24.52;46.72
39435;BME280;30098;51.880;-0.518;2022-08-19T08:33:44;100484.47;;;24.52;47.10
39435;BME280;30098;51.880;-0.518;2022-08-19T08:36:11;100485.72;;;24.54;46.42
39435;BME280;30098;51.880;-0.518;2022-08-19T08:38:42;100488.16;;;24.56;46.92
39435;BME280;30098;51.880;-0.518;2022-08-19T08:43:59;100446.63;;;24.36;46.56
39435;BME280;30098;51.880;-0.518;2022-08-19T08:46:55;100485.94;;;24.62;46.54
39435;BME280;30098;51.880;-0.518;2022-08-19T08:49:33;100492.59;;;24.61;46.50
39435;BME280;30098;51.880;-0.518;2022-08-19T08:52:06;100451.00;;;24.37;46.49
39435;BME280;30098;51.880;-0.518;2022-08-19T08:54:39;100496.63;;;24.63;46.31
39435;BME280;30098;51.880;-0.518;2022-08-19T08:57:13;100501.66;;;24.61;46.37
39435;BME280;30098;51.880;-0.518;2022-08-19T08:59:41;100499.38;;;24.63;46.38
39435;BME280;30098;51.880;-0.518;2022-08-19T09:02:08;100506.81;;;24.63;46.28
39435;BME280;30098;51.880;-0.518;2022-08-19T09:04:36;100507.66;;;24.63;46.27
39435;BME280;30098;51.880;-0.518;2022-08-19T09:09:42;100495.00;;;24.62;46.45
39435;BME280;30098;51.880;-0.518;2022-08-19T09:12:44;100499.81;;;24.65;46.38
39435;BME280;30098;51.880;-0.518;2022-08-19T09:15:17;100498.69;;;24.66;45.43
39435;BME280;30098;51.880;-0.518;2022-08-19T09:17:43;100499.53;;;24.67;45.53
39435;BME280;30098;51.880;-0.518;2022-08-19T09:22:36;100498.81;;;24.70;45.28
39435;BME280;30098;51.880;-0.518;2022-08-19T09:25:03;100499.28;;;24.72;45.44
39435;BME280;30098;51.880;-0.518;2022-08-19T09:27:30;100503.28;;;24.74;45.10
39435;BME280;30098;51.880;-0.518;2022-08-19T09:29:57;100501.78;;;24.77;45.18
39435;BME280;30098;51.880;-0.518;2022-08-19T09:32:23;100512.91;;;24.81;44.99
39435;BME280;30098;51.880;-0.518;2022-08-19T09:34:49;100396.69;;;24.09;44.87
39435;BME280;30098;51.880;-0.518;2022-08-19T09:37:14;100520.91;;;24.86;44.48
39435;BME280;30098;51.880;-0.518;2022-08-19T09:39:40;100509.19;;;24.89;44.60
39435;BME280;30098;51.880;-0.518;2022-08-19T09:42:07;100508.06;;;24.90;44.49
39435;BME280;30098;51.880;-0.518;2022-08-19T09:44:38;100517.47;;;24.89;44.01
39435;BME280;30098;51.880;-0.518;2022-08-19T09:47:04;100519.19;;;24.94;43.99
39435;BME280;30098;51.880;-0.518;2022-08-19T09:49:29;100519.66;;;24.96;43.33
39435;BME280;30098;51.880;-0.518;2022-08-19T09:51:56;100521.22;;;24.97;43.65
39435;BME280;30098;51.880;-0.518;2022-08-19T09:54:22;100533.53;;;24.99;43.40
39435;BME280;30098;51.880;-0.518;2022-08-19T09:56:48;100533.97;;;25.01;43.21
39435;BME280;30098;51.880;-0.518;2022-08-19T09:59:14;100532.81;;;25.02;42.42
39435;BME280;30098;51.880;-0.518;2022-08-19T10:01:39;100529.69;;;25.04;42.49
39435;BME280;30098;51.880;-0.518;2022-08-19T10:04:05;100528.56;;;25.05;42.31
39435;BME280;30098;51.880;-0.518;2022-08-19T10:06:35;100524.28;;;25.08;41.50
39435;BME280;30098;51.880;-0.518;2022-08-19T10:09:03;100529.47;;;25.09;42.58
39435;BME280;30098;51.880;-0.518;2022-08-19T10:11:31;100535.44;;;25.11;42.08
39435;BME280;30098;51.880;-0.518;2022-08-19T10:13:57;100500.56;;;25.03;41.52
39435;BME280;30098;51.880;-0.518;2022-08-19T10:16:23;100521.31;;;25.13;40.33
39435;BME280;30098;51.880;-0.518;2022-08-19T10:18:50;100517.50;;;25.17;40.76
39435;BME280;30098;51.880;-0.518;2022-08-19T10:21:21;100522.28;;;25.20;40.31
39435;BME280;30098;51.880;-0.518;2022-08-19T10:23:49;100520.78;;;25.23;40.46
39435;BME280;30098;51.880;-0.518;2022-08-19T10:26:24;100532.28;;;25.25;40.30
39435;BME280;30098;51.880;-0.518;2022-08-19T10:28:50;100528.81;;;25.28;39.85
39435;BME280;30098;51.880;-0.518;2022-08-19T10:31:19;100532.84;;;25.31;39.85
39435;BME280;30098;51.880;-0.518;2022-08-19T10:33:49;100523.84;;;25.34;39.80
39435;BME280;30098;51.880;-0.518;2022-08-19T10:36:18;100523.16;;;25.37;39.53
39435;BME280;30098;51.880;-0.518;2022-08-19T10:38:50;100514.56;;;25.39;39.28
39435;BME280;30098;51.880;-0.518;2022-08-19T10:41:19;100526.69;;;25.37;39.27
39435;BME280;30098;51.880;-0.518;2022-08-19T10:43:45;100526.03;;;25.41;38.93
39435;BME280;30098;51.880;-0.518;2022-08-19T10:46:14;100514.78;;;25.33;38.70
39435;BME280;30098;51.880;-0.518;2022-08-19T10:48:41;100526.03;;;25.41;38.87
39435;BME280;30098;51.880;-0.518;2022-08-19T10:51:07;100535.91;;;25.42;38.57
39435;BME280;30098;51.880;-0.518;2022-08-19T10:53:52;100546.94;;;25.42;38.22
39435;BME280;30098;51.880;-0.518;2022-08-19T10:56:18;100542.13;;;25.39;37.23
39435;BME280;30098;51.880;-0.518;2022-08-19T10:59:03;100498.91;;;25.14;38.27
39435;BME280;30098;51.880;-0.518;2022-08-19T11:01:30;100540.19;;;25.39;37.33
39435;BME280;30098;51.880;-0.518;2022-08-19T11:03:59;100545.69;;;25.39;37.04
39435;BME280;30098;51.880;-0.518;2022-08-19T11:06:25;100524.38;;;25.24;36.31
39435;BME280;30098;51.880;-0.518;2022-08-19T11:08:52;100517.25;;;25.23;37.35
39435;BME280;30098;51.880;-0.518;2022-08-19T11:11:18;100544.09;;;25.38;37.05
39435;BME280;30098;51.880;-0.518;2022-08-19T11:13:43;100543.72;;;25.40;37.24
39435;BME280;30098;51.880;-0.518;2022-08-19T11:16:16;100539.03;;;25.40;36.41
39435;BME280;30098;51.880;-0.518;2022-08-19T11:18:53;100543.84;;;25.43;36.51
39435;BME280;30098;51.880;-0.518;2022-08-19T11:21:22;100535.56;;;25.43;36.02
39435;BME280;30098;51.880;-0.518;2022-08-19T11:23:50;100539.94;;;25.44;36.60
39435;BME280;30098;51.880;-0.518;2022-08-19T11:26:17;100534.41;;;25.44;36.38
39435;BME280;30098;51.880;-0.518;2022-08-19T11:28:43;100531.75;;;25.48;35.47
39435;BME280;30098;51.880;-0.518;2022-08-19T11:31:13;100544.38;;;25.49;36.53
39435;BME280;30098;51.880;-0.518;2022-08-19T11:33:40;100515.94;;;25.32;35.88
39435;BME280;30098;51.880;-0.518;2022-08-19T11:36:06;100538.97;;;25.52;35.52
39435;BME280;30098;51.880;-0.518;2022-08-19T11:38:33;100537.34;;;25.51;34.83
39435;BME280;30098;51.880;-0.518;2022-08-19T11:41:03;100520.63;;;25.44;35.17
39435;BME280;30098;51.880;-0.518;2022-08-19T11:43:29;100546.09;;;25.53;34.98
39435;BME280;30098;51.880;-0.518;2022-08-19T11:45:56;100538.16;;;25.52;34.60
39435;BME280;30098;51.880;-0.518;2022-08-19T11:48:22;100526.69;;;25.50;34.24
39435;BME280;30098;51.880;-0.518;2022-08-19T11:50:49;100521.59;;;25.52;34.91
39435;BME280;30098;51.880;-0.518;2022-08-19T11:53:19;100536.22;;;25.52;35.00
39435;BME280;30098;51.880;-0.518;2022-08-19T11:55:46;100448.44;;;24.98;34.47
39435;BME280;30098;51.880;-0.518;2022-08-19T11:58:13;100539.75;;;25.53;34.73
39435;BME280;30098;51.880;-0.518;2022-08-19T12:00:40;100543.34;;;25.53;34.79
39435;BME280;30098;51.880;-0.518;2022-08-19T12:03:06;100532.63;;;25.52;34.47
39435;BME280;30098;51.880;-0.518;2022-08-19T12:05:32;100542.28;;;25.58;34.94
39435;BME280;30098;51.880;-0.518;2022-08-19T12:07:57;100532.41;;;25.57;34.50
39435;BME280;30098;51.880;-0.518;2022-08-19T12:10:23;100517.50;;;25.46;34.00
39435;BME280;30098;51.880;-0.518;2022-08-19T12:12:49;100496.59;;;25.45;34.16
39435;BME280;30098;51.880;-0.518;2022-08-19T12:15:15;100528.91;;;25.60;33.46
39435;BME280;30098;51.880;-0.518;2022-08-19T12:17:42;100530.53;;;25.61;33.93
39435;BME280;30098;51.880;-0.518;2022-08-19T12:20:10;100531.34;;;25.62;33.58
39435;BME280;30098;51.880;-0.518;2022-08-19T12:22:37;100531.34;;;25.62;34.13
39435;BME280;30098;51.880;-0.518;2022-08-19T12:25:03;100528.59;;;25.62;33.99
39435;BME280;30098;51.880;-0.518;2022-08-19T12:27:30;100537.66;;;25.62;34.03
39435;BME280;30098;51.880;-0.518;2022-08-19T12:29:56;100526.63;;;25.62;33.66
39435;BME280;30098;51.880;-0.518;2022-08-19T12:32:23;100526.25;;;25.64;33.66
39435;BME280;30098;51.880;-0.518;2022-08-19T12:34:50;100514.78;;;25.62;33.29
39435;BME280;30098;51.880;-0.518;2022-08-19T12:37:15;100507.75;;;25.64;33.21
39435;BME280;30098;51.880;-0.518;2022-08-19T12:39:42;100520.41;;;25.65;33.13
39435;BME280;30098;51.880;-0.518;2022-08-19T12:42:12;100524.75;;;25.66;32.72
39435;BME280;30098;51.880;-0.518;2022-08-19T12:44:40;100528.31;;;25.67;33.31
39435;BME280;30098;51.880;-0.518;2022-08-19T12:47:06;100527.16;;;25.68;32.98
39435;BME280;30098;51.880;-0.518;2022-08-19T12:49:32;100519.69;;;25.68;32.34
39435;BME280;30098;51.880;-0.518;2022-08-19T12:52:05;100522.44;;;25.68;32.19
39435;BME280;30098;51.880;-0.518;2022-08-19T12:54:31;100516.91;;;25.68;32.42